Montgomery, NY

7:20 AM EDT on May 30, 2015 (GMT -0400)
Engineering & Surveying Properties | | Change Station
CLOSE
Current Station
Personal Weather Station
Location: Montgomery, NY
Elevation: 387 ft
Nearby Weather Stations

Elev 387 ft 41.53 °N, 74.24 °W | Updated 41 seconds ago

Mostly Cloudy
Mostly Cloudy
68.5 °F
Feels Like 68.5 °F
N
2.0
Wind Variable Wind from South
Gusts 3.0 mph

Today
High -- | Low -- °F
--% Chance of Precip.
Yesterday
High -- | Low -- °F
Precip. -- in
5:26 AM 8:22 PM
Waxing Gibbous, 89% visible
Pressure 30.19 in
Visibility 10.0 miles
Clouds Mostly Cloudy 1300 ft
Dew Point 62 °F
Humidity 80%
Rainfall 0.00 in
Snow Depth Not available.
UV 1 out of 12
Pollen 8.90 out of 12
Air Quality Not available.
Flu Activity Sporadic
SPECI KMGJ 301114Z AUTO 00000KT 10SM BKN013 18/16 A3019 RMK AO2 T01830161 PWINO TSNO $

More Conditions Fewer Conditions

Pressure 30.19 in
Visibility 10.0 miles
Clouds Mostly Cloudy 1300 ft
Dew Point 62 °F
Humidity 80%
Rainfall 0.00 in
Snow Depth Not available.
UV 1 out of 12
Pollen 8.90 out of 12
Air Quality Not available.
Flu Activity Sporadic
SPECI KMGJ 301114Z AUTO 00000KT 10SM BKN013 18/16 A3019 RMK AO2 T01830161 PWINO TSNO $

More Conditions Fewer Conditions

10-Day Weather Forecast

Almanac

Astronomy

May. 30, 2015 Rise Set
Actual Time
Civil Twilight
Nautical Twilight
Astronomical Twilight
Moon
Length of Visible Light
Length of Day
Tomorrow will be .
, % of the Moon is Illuminated

Today's Extremes

State Highs State Lows

Community

WunderPhotos

Upload Photos

1,825,481 photos uploaded!

WunderBlogs® & News

Nearby

Air Quality

  Air Quality AQ Index Pollutant
Not available.

Snow Depth

Station Depth Elevation

Earthquake Activity

City Distance Mag. Time & Date
Minimum magnitude displayed is 2.5.

Coastal Water Temperatures

Place Temperature

Stations

Nearby Weather Stations

Station Location Temp. Windchill Dew Point Humidity Wind Precip. Elev Updated Type